Time;durP1;ratioP1;P1;durP2;ratioP2;P2;SDS_P1;SDS_P2;PMS_P1;PMS_P2;Temp;Humidity;BMP_temperature;BMP_pressure;BME280_temperature;BME280_humidity;BME280_pressure;Samples;Min_cycle;Max_cycle;Signal;HPM_P1;HPM_P2
2022/05/18 00:00:33;;;;;;;1296.53;999.90;;;19.60;98.30;;;;;;1990011;28;20183;-69
2022/05/18 00:01:34;;;;;;;1285.32;999.90;;;;;;;;;;1997287;28;20460;-69
2022/05/18 00:02:33;;;;;;;1294.07;999.90;;;;;;;;;;1997024;28;20166;-69
2022/05/18 00:03:35;;;;;;;1271.10;999.90;;;;;;;;;;1989560;28;20187;-69
2022/05/18 00:04:34;;;;;;;1282.00;999.90;;;;;;;;;;1989622;28;20177;-70
2022/05/18 00:05:34;;;;;;;1277.07;999.90;;;;;;;;;;1997396;28;20170;-69
2022/05/18 00:06:33;;;;;;;1278.78;999.90;;;;;;;;;;1990188;28;20485;-69
2022/05/18 00:07:32;;;;;;;1289.93;999.90;;;19.50;97.80;;;;;;1989900;28;20634;-70
2022/05/18 00:08:35;;;;;;;1288.70;999.90;;;19.50;96.30;;;;;;1990086;28;20478;-69
2022/05/18 00:09:34;;;;;;;1273.07;999.90;;;19.50;96.30;;;;;;1990032;28;20212;-69
2022/05/18 00:10:33;;;;;;;1258.07;999.90;;;19.50;96.20;;;;;;1989897;28;20175;-69
2022/05/18 00:11:32;;;;;;;1280.80;999.90;;;19.60;96.20;;;;;;1989939;28;20697;-69
2022/05/18 00:12:33;;;;;;;1270.63;999.90;;;19.60;96.10;;;;;;1990008;28;20174;-69
2022/05/18 00:13:32;;;;;;;1257.13;999.90;;;19.60;96.30;;;;;;1989959;28;20649;-71
2022/05/18 00:14:31;;;;;;;1277.60;999.90;;;19.60;96.10;;;;;;1990126;28;20186;-69
2022/05/18 00:15:30;;;;;;;1295.70;999.90;;;19.60;96.20;;;;;;1990015;28;20206;-70
2022/05/18 00:16:30;;;;;;;1271.80;999.90;;;19.50;96.20;;;;;;1989943;28;20237;-69
2022/05/18 00:17:28;;;;;;;1289.97;999.90;;;19.60;96.40;;;;;;1989916;28;20190;-71
2022/05/18 00:18:27;;;;;;;1281.83;999.90;;;;;;;;;;1989967;28;20208;-70
2022/05/18 00:19:26;;;;;;;1279.22;999.90;;;;;;;;;;1996849;28;20174;-70
2022/05/18 00:20:26;;;;;;;1294.77;999.90;;;;;;;;;;1996883;28;20240;-69
2022/05/18 00:21:25;;;;;;;1290.47;999.90;;;;;;;;;;1990136;28;20799;-68
2022/05/18 00:22:23;;;;;;;1292.68;999.90;;;19.50;96.30;;;;;;1989656;28;20171;-71
2022/05/18 00:23:23;;;;;;;1288.00;999.90;;;19.50;96.00;;;;;;1989699;28;20665;-71
2022/05/18 00:24:23;;;;;;;1284.75;999.90;;;19.50;95.90;;;;;;1990060;28;20189;-69
2022/05/18 00:25:25;;;;;;;1264.95;999.90;;;19.50;95.80;;;;;;1989874;28;20485;-69
2022/05/18 00:26:23;;;;;;;1241.72;999.90;;;19.50;95.70;;;;;;1989868;28;20191;-69
2022/05/18 00:27:22;;;;;;;1271.70;999.90;;;19.50;95.70;;;;;;1990192;28;20652;-70
2022/05/18 00:28:21;;;;;;;1267.80;999.90;;;19.60;95.80;;;;;;1990241;28;20182;-70
2022/05/18 00:29:22;;;;;;;1262.03;999.90;;;19.50;95.70;;;;;;1997123;28;20186;-69
2022/05/18 00:30:23;;;;;;;1254.28;999.90;;;19.50;95.60;;;;;;1997096;28;20252;-69
2022/05/18 00:31:22;;;;;;;1256.32;999.90;;;19.50;95.70;;;;;;1989282;28;20225;-70
2022/05/18 00:32:20;;;;;;;1275.73;999.90;;;19.50;95.70;;;;;;1989642;28;20182;-69
2022/05/18 00:33:20;;;;;;;1280.73;999.90;;;19.50;95.70;;;;;;1989446;28;20269;-69
2022/05/18 00:34:18;;;;;;;1278.18;999.90;;;19.50;95.70;;;;;;1989236;28;20186;-69
2022/05/18 00:35:17;;;;;;;1264.00;999.90;;;19.50;95.80;;;;;;1989826;28;20682;-69
2022/05/18 00:36:17;;;;;;;1262.00;999.90;;;19.50;95.70;;;;;;1990140;28;20174;-69
2022/05/18 00:37:16;;;;;;;1282.20;999.90;;;19.50;95.60;;;;;;1990165;28;20677;-69
2022/05/18 00:38:15;;;;;;;1270.03;999.90;;;19.50;95.50;;;;;;1990345;28;20569;-69
2022/05/18 00:39:14;;;;;;;1295.28;999.90;;;19.50;95.50;;;;;;1990403;28;20186;-69
2022/05/18 00:40:16;;;;;;;1276.40;999.90;;;19.50;95.50;;;;;;1990299;28;20661;-69
2022/05/18 00:41:19;;;;;;;1299.68;999.90;;;19.50;95.50;;;;;;1989819;28;20583;-71
2022/05/18 00:42:22;;;;;;;1293.20;999.90;;;19.50;95.40;;;;;;1990249;28;20159;-69
2022/05/18 00:43:43;;;;;;;1292.18;999.90;;;19.50;95.40;;;;;;1990552;28;20170;-71
2022/05/18 00:44:41;;;;;;;1297.05;999.90;;;19.50;95.30;;;;;;1990231;28;20595;-70
2022/05/18 00:45:40;;;;;;;1286.33;999.90;;;19.50;95.40;;;;;;1997335;28;20178;-69
2022/05/18 00:46:38;;;;;;;1296.47;999.90;;;19.50;95.40;;;;;;1997148;28;20193;-71
2022/05/18 00:47:37;;;;;;;1299.57;999.90;;;19.50;95.40;;;;;;1990348;28;20262;-69
2022/05/18 00:48:37;;;;;;;1286.47;999.90;;;19.50;95.30;;;;;;1990201;28;20600;-70
2022/05/18 00:49:38;;;;;;;1281.50;999.90;;;19.50;95.30;;;;;;1990223;28;20413;-70
2022/05/18 00:50:40;;;;;;;1272.90;999.90;;;19.50;95.30;;;;;;1990211;28;20171;-70
2022/05/18 00:51:49;;;;;;;1305.18;999.90;;;19.50;95.30;;;;;;1990470;28;20171;-70
2022/05/18 00:52:58;;;;;;;1288.35;999.90;;;19.50;95.40;;;;;;1990261;28;20163;-70
2022/05/18 00:54:13;;;;;;;1278.18;999.90;;;19.50;95.50;;;;;;1997559;28;20521;-70
2022/05/18 00:55:16;;;;;;;1277.13;999.90;;;19.50;95.60;;;;;;1995145;28;20231;-71
2022/05/18 00:56:25;;;;;;;1297.47;999.90;;;19.50;95.50;;;;;;1997286;28;20229;-69
2022/05/18 00:57:36;;;;;;;1286.55;999.90;;;19.50;95.50;;;;;;1997559;28;20167;-69
2022/05/18 00:59:16;;;;;;;1282.55;999.90;;;19.50;95.50;;;;;;1995985;28;20158;-69
2022/05/18 01:00:19;;;;;;;1283.45;999.90;;;19.50;95.50;;;;;;1990047;28;20704;-69
2022/05/18 01:01:20;;;;;;;1299.32;999.90;;;19.40;95.40;;;;;;1990639;28;20178;-71
2022/05/18 01:02:21;;;;;;;1297.95;999.90;;;19.40;95.40;;;;;;1997937;28;20170;-68
2022/05/18 01:03:24;;;;;;;1297.72;999.90;;;19.50;95.70;;;;;;1998184;28;20174;-69
2022/05/18 01:04:25;;;;;;;1282.95;999.90;;;19.50;95.40;;;;;;1990527;28;20181;-69
2022/05/18 01:05:29;;;;;;;1304.32;999.90;;;19.40;95.40;;;;;;1991432;28;20175;-69
2022/05/18 01:06:52;;;;;;;1273.95;999.90;;;19.50;95.40;;;;;;1991677;28;20186;-70
2022/05/18 01:07:53;;;;;;;1289.03;999.90;;;19.50;95.50;;;;;;1992636;28;20154;-69
2022/05/18 01:09:07;;;;;;;1268.65;999.90;;;19.40;95.30;;;;;;1992211;28;20187;-69
2022/05/18 01:10:06;;;;;;;1297.97;999.90;;;19.60;95.40;;;;;;1999489;28;20170;-70
2022/05/18 01:11:05;;;;;;;1281.78;999.90;;;19.50;95.30;;;;;;1999782;28;20181;-69
2022/05/18 01:12:05;;;;;;;1288.80;999.90;;;19.40;95.20;;;;;;1992434;28;20186;-69
2022/05/18 01:13:04;;;;;;;1292.43;999.90;;;19.50;95.20;;;;;;1993007;28;20183;-70
2022/05/18 01:14:22;;;;;;;1271.20;999.90;;;19.50;95.20;;;;;;1992003;28;20249;-70
2022/05/18 01:15:22;;;;;;;1269.10;999.90;;;19.40;95.20;;;;;;1993890;28;20483;-70
2022/05/18 01:16:20;;;;;;;1282.88;999.90;;;19.40;95.10;;;;;;2001697;28;20195;-69
2022/05/18 01:17:31;;;;;;;1281.70;999.90;;;19.40;95.20;;;;;;2001334;28;20294;-70
2022/05/18 01:18:29;;;;;;;1285.07;999.90;;;19.40;95.20;;;;;;1995817;28;20206;-70
2022/05/18 01:19:39;;;;;;;1270.07;999.90;;;19.40;95.10;;;;;;2003141;28;20233;-70
2022/05/18 01:20:38;;;;;;;1281.07;999.90;;;19.40;95.10;;;;;;2003214;28;20227;-71
2022/05/18 01:21:45;;;;;;;1291.30;999.90;;;19.40;95.10;;;;;;2004653;28;20193;-70
2022/05/18 01:23:04;;;;;;;1260.75;999.90;;;19.40;95.10;;;;;;2004695;28;20221;-71
2022/05/18 01:24:10;;;;;;;1292.88;999.90;;;19.40;95.10;;;;;;1997461;28;20253;-72
2022/05/18 01:25:32;;;;;;;1277.25;999.90;;;19.40;95.00;;;;;;1997974;28;20175;-71
2022/05/18 01:26:40;;;;;;;1264.88;999.90;;;19.40;95.30;;;;;;1983419;28;20185;-69
2022/05/18 01:27:38;;;;;;;1286.70;999.90;;;19.40;95.00;;;;;;1995903;28;20155;-70
2022/05/18 01:28:44;;;;;;;1296.10;999.90;;;19.40;95.00;;;;;;1996037;28;20178;-69
2022/05/18 01:29:42;;;;;;;1291.20;999.90;;;19.40;95.00;;;;;;1995934;28;20159;-69
2022/05/18 01:30:46;;;;;;;1300.40;999.90;;;19.40;94.90;;;;;;1995716;28;20182;-70
2022/05/18 01:32:03;;;;;;;1291.07;999.90;;;19.40;95.00;;;;;;2003389;28;20212;-69
2022/05/18 01:33:07;;;;;;;1288.55;999.90;;;19.40;95.00;;;;;;2000473;28;20185;-70
2022/05/18 01:34:06;;;;;;;1315.45;999.90;;;19.40;94.90;;;;;;1994568;28;20216;-68
2022/05/18 01:35:05;;;;;;;1265.80;999.90;;;19.40;95.00;;;;;;1994699;28;20264;-69
2022/05/18 01:36:05;;;;;;;1292.35;999.90;;;19.40;94.90;;;;;;1994645;28;20230;-68
2022/05/18 01:37:04;;;;;;;1303.78;999.90;;;19.40;94.90;;;;;;1995559;28;20206;-69
2022/05/18 01:38:06;;;;;;;1280.47;999.90;;;19.40;94.90;;;;;;1994422;28;20236;-69
2022/05/18 01:39:10;;;;;;;1278.70;999.90;;;19.50;95.20;;;;;;1995381;28;20225;-69
2022/05/18 01:40:43;;;;;;;1263.30;999.90;;;19.40;94.90;;;;;;1995057;28;20240;-68
2022/05/18 01:41:52;;;;;;;1271.35;999.90;;;19.40;94.90;;;;;;1979826;28;20234;-70
2022/05/18 01:42:56;;;;;;;1276.85;999.90;;;19.40;94.90;;;;;;1993318;28;20190;-69
2022/05/18 01:43:59;;;;;;;1265.40;999.90;;;19.40;95.00;;;;;;1991484;28;20170;-70
2022/05/18 01:44:59;;;;;;;1257.40;999.90;;;19.40;95.00;;;;;;1992111;28;20174;-70
2022/05/18 01:46:02;;;;;;;1303.60;999.90;;;19.30;94.90;;;;;;1993529;28;20179;-68
2022/05/18 01:47:00;;;;;;;1291.30;999.90;;;19.40;95.00;;;;;;1994534;28;20198;-71
2022/05/18 01:48:08;;;;;;;1300.53;999.90;;;19.40;95.10;;;;;;1994555;28;20175;-70
2022/05/18 01:49:06;;;;;;;1303.68;999.90;;;19.40;95.10;;;;;;1994774;28;20158;-70
2022/05/18 01:50:14;;;;;;;1296.40;999.90;;;19.40;95.10;;;;;;1995277;28;20277;-70
2022/05/18 01:51:23;;;;;;;1282.80;999.90;;;19.40;95.30;;;;;;1996134;28;20147;-69
2022/05/18 01:52:23;;;;;;;1277.18;999.90;;;19.40;95.40;;;;;;2002782;28;20154;-70
2022/05/18 01:53:22;;;;;;;1296.45;999.90;;;19.40;95.50;;;;;;2002574;28;20164;-69
2022/05/18 01:54:20;;;;;;;1264.67;999.90;;;19.30;95.40;;;;;;1995762;28;20213;-69
2022/05/18 01:55:19;;;;;;;1298.77;999.90;;;19.30;95.40;;;;;;1995251;28;20185;-69
2022/05/18 01:56:17;;;;;;;1313.83;999.90;;;19.30;95.50;;;;;;1994476;28;20182;-70
2022/05/18 01:57:16;;;;;;;1281.33;999.90;;;19.40;95.60;;;;;;1993902;28;20205;-71
2022/05/18 01:58:15;;;;;;;1304.53;999.90;;;19.30;95.40;;;;;;1993911;28;20217;-68
2022/05/18 01:59:16;;;;;;;1308.53;999.90;;;19.40;95.40;;;;;;1994810;28;20166;-68
2022/05/18 02:00:16;;;;;;;1312.75;999.90;;;19.40;95.40;;;;;;1996073;28;20170;-70
2022/05/18 02:01:16;;;;;;;1305.03;999.90;;;19.40;95.50;;;;;;2005502;28;20170;-70
2022/05/18 02:02:15;;;;;;;1313.75;999.90;;;19.40;95.60;;;;;;2005335;28;20188;-70
2022/05/18 02:03:16;;;;;;;1300.00;999.90;;;19.30;95.40;;;;;;1998362;28;20190;-68
2022/05/18 02:04:15;;;;;;;1310.30;999.90;;;19.40;95.50;;;;;;2005374;28;20233;-70
2022/05/18 02:05:14;;;;;;;1311.00;999.90;;;19.30;95.40;;;;;;2004401;28;20212;-70
2022/05/18 02:06:14;;;;;;;1310.07;999.90;;;19.30;95.40;;;;;;1995521;28;20189;-71
2022/05/18 02:07:13;;;;;;;1295.78;999.90;;;19.40;95.50;;;;;;1996864;28;20193;-71
2022/05/18 02:08:15;;;;;;;1311.83;999.90;;;19.40;95.30;;;;;;2005743;28;20198;-68
2022/05/18 02:09:16;;;;;;;1311.18;999.90;;;19.30;95.30;;;;;;2005723;28;20421;-71
2022/05/18 02:10:15;;;;;;;1302.85;999.90;;;19.30;95.30;;;;;;1998253;28;20166;-70
2022/05/18 02:11:16;;;;;;;1295.90;999.90;;;19.30;95.30;;;;;;1998485;28;20194;-71
2022/05/18 02:12:15;;;;;;;1294.55;999.90;;;19.40;95.40;;;;;;2005890;28;20253;-72
2022/05/18 02:13:13;;;;;;;1289.53;999.90;;;19.40;95.30;;;;;;2005917;28;20177;-71
2022/05/18 02:14:12;;;;;;;1298.33;999.90;;;19.40;95.30;;;;;;1996971;28;20276;-69
2022/05/18 02:15:11;;;;;;;1280.10;999.90;;;19.40;95.30;;;;;;1995884;28;20186;-71
2022/05/18 02:16:12;;;;;;;1288.63;999.90;;;19.40;95.30;;;;;;1997113;28;20424;-70
2022/05/18 02:17:10;;;;;;;1322.43;999.90;;;19.30;95.50;;;;;;1995817;28;20426;-70
2022/05/18 02:18:09;;;;;;;1286.27;999.90;;;19.40;95.30;;;;;;1997308;28;20194;-71
2022/05/18 02:19:08;;;;;;;1296.63;999.90;;;19.30;95.40;;;;;;2005280;28;20229;-69
2022/05/18 02:20:07;;;;;;;1300.47;999.90;;;19.40;95.40;;;;;;2003488;28;20247;-71
2022/05/18 02:21:08;;;;;;;1325.53;999.90;;;19.40;95.30;;;;;;1998558;28;20566;-71
2022/05/18 02:22:06;;;;;;;1292.15;999.90;;;19.40;95.40;;;;;;1998486;28;20182;-70
2022/05/18 02:23:06;;;;;;;1296.20;999.90;;;19.40;95.30;;;;;;1998477;28;20190;-71
2022/05/18 02:24:06;;;;;;;1307.75;999.90;;;19.40;95.30;;;;;;1998262;28;20174;-70
2022/05/18 02:25:09;;;;;;;1317.32;999.90;;;19.40;95.50;;;;;;1998199;28;20186;-69
2022/05/18 02:26:11;;;;;;;1314.00;999.90;;;19.40;95.50;;;;;;2003667;28;20253;-69
2022/05/18 02:27:10;;;;;;;1306.80;999.90;;;19.40;95.60;;;;;;2004621;28;20229;-70
2022/05/18 02:28:09;;;;;;;1305.17;999.90;;;19.30;95.50;;;;;;2007022;28;20165;-70
2022/05/18 02:29:07;;;;;;;1308.63;999.90;;;19.30;95.50;;;;;;1998863;28;20394;-70
2022/05/18 02:30:07;;;;;;;1306.33;999.90;;;19.30;95.50;;;;;;1998228;28;20202;-70
2022/05/18 02:31:06;;;;;;;1294.45;999.90;;;19.30;95.70;;;;;;1998700;28;20174;-71
2022/05/18 02:32:05;;;;;;;1315.33;999.90;;;19.30;95.60;;;;;;1999264;28;20197;-71
2022/05/18 02:33:07;;;;;;;1306.00;999.90;;;19.30;95.60;;;;;;1999610;28;20509;-68
2022/05/18 02:34:08;;;;;;;1303.25;999.90;;;19.30;95.70;;;;;;1999936;28;20190;-69
2022/05/18 02:35:09;;;;;;;1310.10;999.90;;;19.30;95.90;;;;;;1999804;28;20163;-71
2022/05/18 02:36:10;;;;;;;1303.55;999.90;;;19.40;96.30;;;;;;1999915;28;20177;-71
2022/05/18 02:37:10;;;;;;;1296.85;999.90;;;19.40;96.60;;;;;;1999519;28;20174;-71
2022/05/18 02:38:09;;;;;;;1295.13;999.90;;;19.30;96.30;;;;;;1999784;28;20214;-71
2022/05/18 02:39:10;;;;;;;1317.43;999.90;;;19.30;96.20;;;;;;1999792;28;20202;-70
2022/05/18 02:40:11;;;;;;;1312.68;999.90;;;19.40;96.60;;;;;;1999832;28;20271;-69
2022/05/18 02:41:09;;;;;;;1305.97;999.90;;;19.30;96.70;;;;;;1999588;28;20190;-72
2022/05/18 02:42:11;;;;;;;1310.23;999.90;;;19.30;96.40;;;;;;1999016;28;20242;-71
2022/05/18 02:43:11;;;;;;;1308.07;999.90;;;19.30;96.50;;;;;;2006259;28;20301;-70
2022/05/18 02:44:12;;;;;;;1301.32;999.90;;;19.30;96.40;;;;;;2007280;28;20174;-71
2022/05/18 02:45:11;;;;;;;1305.85;999.90;;;19.30;96.30;;;;;;2000007;28;20170;-72
2022/05/18 02:46:21;;;;;;;1299.60;999.90;;;19.30;96.10;;;;;;1999765;28;20190;-71
2022/05/18 02:47:20;;;;;;;1332.43;999.90;;;19.30;96.00;;;;;;1996383;28;20429;-69
2022/05/18 02:48:18;;;;;;;1287.18;999.90;;;19.30;96.00;;;;;;1995326;28;20193;-69
2022/05/18 02:49:17;;;;;;;1315.07;999.90;;;19.30;95.90;;;;;;2006821;28;20184;-69
2022/05/18 02:50:16;;;;;;;1326.37;999.90;;;19.30;95.70;;;;;;2006844;28;20178;-69
2022/05/18 02:51:16;;;;;;;1320.55;999.90;;;19.30;95.70;;;;;;1999561;28;20197;-70
2022/05/18 02:52:14;;;;;;;1316.10;999.90;;;19.30;95.60;;;;;;1999469;28;20181;-70
2022/05/18 02:53:13;;;;;;;1316.87;999.90;;;19.30;95.50;;;;;;2006938;28;20181;-71
2022/05/18 02:56:52;;;;;;;1299.32;999.90;;;19.30;95.70;;;;;;1999278;28;20186;-69
2022/05/18 02:57:51;;;;;;;1313.70;999.90;;;19.30;95.60;;;;;;2006620;28;20229;-70
2022/05/18 02:58:51;;;;;;;1311.57;999.90;;;19.30;95.50;;;;;;1998498;28;20190;-71
2022/05/18 02:59:49;;;;;;;1299.90;999.90;;;19.30;95.50;;;;;;1989441;28;20203;-70
2022/05/18 03:00:48;;;;;;;1289.97;999.90;;;19.30;95.50;;;;;;1997277;28;20189;-69
2022/05/18 03:01:48;;;;;;;1278.17;999.90;;;19.30;95.60;;;;;;1997102;28;20320;-70
2022/05/18 03:02:46;;;;;;;1309.93;999.90;;;19.30;95.50;;;;;;1993162;28;20193;-69
2022/05/18 03:03:45;;;;;;;1299.80;999.90;;;19.30;95.50;;;;;;1998812;28;20197;-70
2022/05/18 03:04:44;;;;;;;1312.13;999.90;;;19.30;95.60;;;;;;1999076;28;20202;-69
2022/05/18 03:05:43;;;;;;;1298.93;999.90;;;19.30;95.60;;;;;;1999120;28;20469;-71
2022/05/18 03:06:42;;;;;;;1318.65;999.90;;;19.30;95.60;;;;;;2006240;28;20209;-70
2022/05/18 03:07:41;;;;;;;1314.50;999.90;;;19.30;95.60;;;;;;2006432;28;20367;-70
2022/05/18 03:08:42;;;;;;;1312.22;999.90;;;19.30;95.70;;;;;;1999393;28;20177;-71
2022/05/18 03:09:40;;;;;;;1300.78;999.90;;;19.30;95.90;;;;;;1999466;28;20193;-71
2022/05/18 03:10:39;;;;;;;1295.13;999.90;;;19.30;95.60;;;;;;1998942;28;20178;-71
2022/05/18 03:11:38;;;;;;;1296.63;999.90;;;19.30;95.50;;;;;;2006996;28;20185;-70
2022/05/18 03:12:36;;;;;;;1305.70;999.90;;;19.30;95.80;;;;;;2006787;28;20439;-71
2022/05/18 03:13:35;;;;;;;1295.17;999.90;;;19.30;95.60;;;;;;1998898;28;20281;-71
2022/05/18 03:14:35;;;;;;;1309.00;999.90;;;19.30;95.60;;;;;;2005374;28;20241;-70
2022/05/18 03:15:35;;;;;;;1301.68;999.90;;;19.30;95.60;;;;;;2002563;28;20420;-71
2022/05/18 03:16:33;;;;;;;1313.05;999.90;;;19.30;95.60;;;;;;1996112;28;20193;-70
2022/05/18 03:17:32;;;;;;;1307.57;999.90;;;19.30;95.60;;;;;;1997465;28;20197;-70
2022/05/18 03:18:30;;;;;;;1303.10;999.90;;;19.30;95.60;;;;;;1997803;28;20214;-70
2022/05/18 03:19:30;;;;;;;1295.73;999.90;;;19.30;95.60;;;;;;1996808;28;20250;-70
2022/05/18 03:24:27;;;;;;;1296.10;999.90;;;19.30;95.50;;;;;;1990430;28;20155;-69
2022/05/18 03:25:26;;;;;;;1309.30;999.90;;;19.30;95.50;;;;;;1997459;28;20266;-69
2022/05/18 03:26:27;;;;;;;1312.65;999.90;;;19.30;95.70;;;;;;1997396;28;20192;-69
2022/05/18 03:27:25;;;;;;;1314.68;999.90;;;19.30;95.50;;;;;;1989676;28;20273;-69
2022/05/18 03:28:25;;;;;;;1303.93;999.90;;;19.30;95.50;;;;;;1981765;29;20179;-69
2022/05/18 03:29:24;;;;;;;1293.18;999.90;;;19.30;95.50;;;;;;1989037;28;20248;-70
2022/05/18 03:30:22;;;;;;;1296.73;999.90;;;19.30;95.70;;;;;;1989991;28;20233;-69
2022/05/18 03:31:22;;;;;;;1300.13;999.90;;;19.20;95.60;;;;;;1990060;28;20190;-69
2022/05/18 03:32:22;;;;;;;1313.95;999.90;;;19.30;95.70;;;;;;1997306;28;20213;-69
2022/05/18 03:33:23;;;;;;;1304.07;999.90;;;19.30;95.70;;;;;;1997454;28;20205;-70
2022/05/18 03:34:22;;;;;;;1312.60;999.90;;;19.30;95.90;;;;;;1990260;28;20198;-69
2022/05/18 03:35:21;;;;;;;1299.90;999.90;;;19.30;95.70;;;;;;1990329;28;20190;-71
2022/05/18 03:36:21;;;;;;;1310.17;999.90;;;19.30;95.80;;;;;;1997429;28;20231;-69
2022/05/18 03:37:21;;;;;;;1317.45;999.90;;;19.30;95.80;;;;;;1996804;28;20181;-69
2022/05/18 03:38:20;;;;;;;1304.95;999.90;;;19.30;95.80;;;;;;1990209;28;20567;-69
2022/05/18 03:39:18;;;;;;;1323.40;999.90;;;19.20;95.70;;;;;;1990149;28;20167;-70
2022/05/18 03:40:17;;;;;;;1317.23;999.90;;;19.30;96.10;;;;;;1990408;28;20174;-69
2022/05/18 03:41:16;;;;;;;1316.03;999.90;;;19.30;96.00;;;;;;1990338;28;20242;-69
2022/05/18 03:42:19;;;;;;;1307.68;999.90;;;19.30;96.00;;;;;;1990145;28;20174;-69
2022/05/18 03:43:21;;;;;;;1310.93;999.90;;;19.30;96.10;;;;;;1990125;28;20171;-70
2022/05/18 03:44:20;;;;;;;1315.88;999.90;;;19.30;96.10;;;;;;1990072;28;20170;-71
2022/05/18 03:45:19;;;;;;;1300.50;999.90;;;19.20;96.20;;;;;;1990222;28;20170;-69
2022/05/18 03:46:18;;;;;;;1312.77;999.90;;;;;;;;;;1990254;28;20171;-70
2022/05/18 03:47:17;;;;;;;1296.40;999.90;;;19.20;96.20;;;;;;1990218;28;20171;-69
2022/05/18 03:48:18;;;;;;;1296.03;999.90;;;;;;;;;;1989570;28;20186;-70
2022/05/18 03:49:17;;;;;;;1304.97;999.90;;;;;;;;;;1989617;28;20414;-69
2022/05/18 03:50:17;;;;;;;1298.73;999.90;;;;;;;;;;1990220;28;20206;-70
2022/05/18 03:51:16;;;;;;;1314.47;999.90;;;;;;;;;;1990319;28;20402;-71
2022/05/18 03:52:15;;;;;;;1298.70;999.90;;;;;;;;;;1990009;28;20257;-70
2022/05/18 03:53:14;;;;;;;1298.43;999.90;;;;;;;;;;1989970;28;20175;-70
2022/05/18 03:54:14;;;;;;;1301.75;999.90;;;;;;;;;;1990081;28;20406;-71
2022/05/18 03:55:13;;;;;;;1292.35;999.90;;;;;;;;;;1990211;28;20705;-70
2022/05/18 03:56:12;;;;;;;1299.72;999.90;;;;;;;;;;1997413;28;20205;-70
2022/05/18 03:57:11;;;;;;;1316.00;999.90;;;;;;;;;;1996887;28;20228;-70
2022/05/18 03:58:10;;;;;;;1310.10;999.90;;;;;;;;;;1990192;28;20618;-70
2022/05/18 03:59:09;;;;;;;1302.80;999.90;;;;;;;;;;1989858;28;20268;-70
2022/05/18 04:00:08;;;;;;;1295.53;999.90;;;;;;;;;;1989992;28;20606;-69
2022/05/18 04:01:10;;;;;;;1291.88;999.90;;;;;;;;;;1989942;28;20771;-70
2022/05/18 04:02:11;;;;;;;1307.60;999.90;;;;;;;;;;1989893;28;20190;-70
2022/05/18 04:03:10;;;;;;;1307.38;999.90;;;;;;;;;;1989998;28;20173;-69
2022/05/18 04:04:09;;;;;;;1299.95;999.90;;;;;;;;;;1997290;28;20185;-69
2022/05/18 04:05:09;;;;;;;1300.18;999.90;;;;;;;;;;1997158;28;20170;-69
2022/05/18 04:06:09;;;;;;;1306.93;999.90;;;;;;;;;;1990246;28;20175;-70
2022/05/18 04:07:07;;;;;;;1311.38;999.90;;;;;;;;;;2003588;28;20248;-71
2022/05/18 04:08:09;;;;;;;1302.43;999.90;;;;;;;;;;2005064;28;20209;-70
2022/05/18 04:09:08;;;;;;;1294.78;999.90;;;;;;;;;;1997317;28;20410;-69
2022/05/18 04:10:07;;;;;;;1304.37;999.90;;;;;;;;;;1997156;28;20254;-70
2022/05/18 04:11:07;;;;;;;1321.18;999.90;;;;;;;;;;1990455;28;20418;-69
2022/05/18 04:12:06;;;;;;;1313.60;999.90;;;;;;;;;;1998095;28;20724;-69
2022/05/18 04:13:06;;;;;;;1313.70;999.90;;;;;;;;;;1990983;28;20181;-70
2022/05/18 04:14:05;;;;;;;1305.38;999.90;;;;;;;;;;1990279;28;20194;-68
2022/05/18 04:15:06;;;;;;;1297.70;999.90;;;;;;;;;;1990472;28;20178;-69
2022/05/18 04:16:05;;;;;;;1308.07;999.90;;;;;;;;;;1989850;28;20773;-70
2022/05/18 04:17:05;;;;;;;1317.25;999.90;;;;;;;;;;1989904;28;20610;-71
2022/05/18 04:18:05;;;;;;;1311.80;999.90;;;;;;;;;;1989640;28;20214;-69
2022/05/18 04:19:04;;;;;;;1313.47;999.90;;;;;;;;;;1989853;28;20182;-69
2022/05/18 04:20:04;;;;;;;1303.30;999.90;;;19.20;97.00;;;;;;1988974;28;20175;-70
2022/05/18 04:21:06;;;;;;;1312.68;999.90;;;19.30;95.20;;;;;;1989153;28;20226;-70
2022/05/18 04:22:06;;;;;;;1300.68;999.90;;;;;;;;;;1989892;28;20193;-70
2022/05/18 04:23:06;;;;;;;1298.28;999.90;;;19.20;95.90;;;;;;1989889;28;20583;-70
2022/05/18 04:24:07;;;;;;;1310.93;999.90;;;;;;;;;;1989747;28;20327;-69
2022/05/18 04:25:06;;;;;;;1294.10;999.90;;;;;;;;;;1989220;28;20674;-70
2022/05/18 04:26:05;;;;;;;1299.45;999.90;;;;;;;;;;1989321;28;20624;-71
2022/05/18 04:27:06;;;;;;;1305.50;999.90;;;;;;;;;;1989788;28;20202;-69
2022/05/18 04:28:05;;;;;;;1304.38;999.90;;;;;;;;;;1989769;28;20182;-71
2022/05/18 04:29:05;;;;;;;1291.00;999.90;;;;;;;;;;1990032;28;20193;-70
2022/05/18 04:30:05;;;;;;;1298.40;999.90;;;;;;;;;;1990001;28;20538;-70
2022/05/18 04:31:04;;;;;;;1308.28;999.90;;;;;;;;;;1989871;28;20936;-71
2022/05/18 04:32:03;;;;;;;1298.70;999.90;;;;;;;;;;1989830;28;20192;-69
2022/05/18 04:33:04;;;;;;;1316.18;999.90;;;;;;;;;;1989067;28;20186;-70
2022/05/18 04:34:03;;;;;;;1310.55;999.90;;;;;;;;;;1989218;28;20176;-70
2022/05/18 04:35:02;;;;;;;1303.83;999.90;;;;;;;;;;1989773;28;20553;-70
2022/05/18 04:36:04;;;;;;;1292.88;999.90;;;;;;;;;;1989814;28;20544;-71
2022/05/18 04:37:03;;;;;;;1311.57;999.90;;;;;;;;;;1989780;28;20666;-70
2022/05/18 04:38:02;;;;;;;1310.15;999.90;;;;;;;;;;1989639;28;20241;-70
2022/05/18 04:39:01;;;;;;;1304.77;999.90;;;;;;;;;;1989975;28;20190;-71
2022/05/18 04:40:00;;;;;;;1295.60;999.90;;;;;;;;;;1989982;28;20402;-71
2022/05/18 04:40:58;;;;;;;1300.07;999.90;;;19.20;96.80;;;;;;1996596;28;20405;-70
2022/05/18 04:41:57;;;;;;;1304.50;999.90;;;;;;;;;;1996673;28;20412;-70
2022/05/18 04:42:56;;;;;;;1306.20;999.90;;;;;;;;;;1989806;28;20186;-70
2022/05/18 04:43:55;;;;;;;1311.07;999.90;;;19.30;95.00;;;;;;1989362;28;20402;-69
2022/05/18 04:44:54;;;;;;;1297.70;999.90;;;;;;;;;;1989458;28;20501;-69
2022/05/18 04:45:55;;;;;;;1303.00;999.90;;;;;;;;;;1989486;28;20219;-70
2022/05/18 04:46:56;;;;;;;1304.82;999.90;;;;;;;;;;1989308;28;20422;-70
2022/05/18 04:47:55;;;;;;;1303.50;999.90;;;;;;;;;;1989359;28;20273;-70
2022/05/18 04:48:55;;;;;;;1294.53;999.90;;;19.30;95.00;;;;;;1988956;28;20166;-70
2022/05/18 04:49:53;;;;;;;1311.22;999.90;;;19.30;95.70;;;;;;1989090;28;20402;-70
2022/05/18 04:50:53;;;;;;;1296.87;999.90;;;19.30;96.00;;;;;;1989398;28;20248;-71
2022/05/18 04:51:52;;;;;;;1308.32;999.90;;;;;;;;;;1989186;28;20229;-69
2022/05/18 04:52:51;;;;;;;1294.50;999.90;;;;;;;;;;1989357;28;20177;-70
2022/05/18 04:53:50;;;;;;;1312.13;999.90;;;;;;;;;;1989345;28;20886;-69
2022/05/18 04:54:49;;;;;;;1304.28;999.90;;;19.30;94.80;;;;;;1989465;28;20527;-72
2022/05/18 04:55:49;;;;;;;1319.73;999.90;;;;;;;;;;1989246;28;20178;-70
2022/05/18 04:56:48;;;;;;;1296.60;999.90;;;;;;;;;;1989497;28;20186;-71
2022/05/18 04:57:47;;;;;;;1289.00;999.90;;;;;;;;;;1989382;28;20175;-70
2022/05/18 04:58:46;;;;;;;1285.90;999.90;;;;;;;;;;1989306;28;20789;-69
2022/05/18 04:59:45;;;;;;;1293.93;999.90;;;;;;;;;;1989316;28;20882;-71
2022/05/18 05:00:45;;;;;;;1313.28;999.90;;;;;;;;;;1988680;28;20417;-69
2022/05/18 05:01:44;;;;;;;1297.57;999.90;;;;;;;;;;1988975;28;20182;-69
2022/05/18 05:02:43;;;;;;;1283.57;999.90;;;;;;;;;;1989236;28;20178;-69
2022/05/18 05:03:42;;;;;;;1300.17;999.90;;;;;;;;;;1989378;28;20917;-71
2022/05/18 05:04:41;;;;;;;1305.37;999.90;;;;;;;;;;1989187;28;20410;-70
2022/05/18 05:05:40;;;;;;;1295.03;999.90;;;;;;;;;;1989495;28;20836;-71
2022/05/18 05:06:40;;;;;;;1296.13;999.90;;;;;;;;;;1989421;28;20508;-70
2022/05/18 05:07:39;;;;;;;1306.20;999.90;;;;;;;;;;1989527;28;20953;-71
2022/05/18 05:08:39;;;;;;;1299.47;999.90;;;;;;;;;;1989432;28;20262;-70
2022/05/18 05:09:38;;;;;;;1308.15;999.90;;;;;;;;;;1989328;28;20859;-70
2022/05/18 05:10:37;;;;;;;1312.03;999.90;;;19.30;95.10;;;;;;1989331;28;20182;-69
2022/05/18 05:11:37;;;;;;;1313.67;999.90;;;;;;;;;;1989337;28;20179;-70
2022/05/18 05:12:36;;;;;;;1305.72;999.90;;;;;;;;;;1996390;28;20185;-70
2022/05/18 05:13:36;;;;;;;1304.07;999.90;;;;;;;;;;1996656;28;20182;-70
2022/05/18 05:14:41;;;;;;;1315.50;999.90;;;;;;;;;;1989281;28;20449;-70